Terminal Aerodrome Forecast
Issued by NWS Blacksburg, VA

Current Version | Previous Version | Graphics & Text | Print | Product List | Glossary On
Versions: 1 2 3 4 5 6 7 8 9 10 11 12 13 14 15 16 17 18 19 20 21 22 23 24 25 26 27 28 29 30 31 32 33 34 35
000
FTUS41 KRNK 241136
TAFBLF
TAF
KBLF 241136Z 2412/2512 31007KT P6SM SKC
     FM241400 29009G17KT P6SM SCT250
     FM241800 28008G16KT P6SM BKN250
     FM242300 28006KT P6SM SCT100 BKN250
     FM250600 VRB04KT P6SM BKN070 OVC200
     FM251000 14005KT P6SM BKN045 OVC070=

USA.gov is the U.S. government's official web portal to all federal, state and local government web resources and services.